Back to Top

Language: 

My Weather Underground Personal Weather Station Historical Data with Graphs...

Delerius Weather Station Historical Data
Daily Summary for December 1, 2017 Units:  Both    English   Metric
« Previous Day
Next Day »
Daily Weekly Monthly Yearly Custom
  High: Low: Average:
Temperature: 42.1 °F /  5.6 °C 34.5 °F /  1.4 °C 37.8 °F /  3.2 °C
Dew Point: 37.5 °F /  3.1 °C 31.5 °F /  -0.3 °C 34.3 °F /  1.3 °C
Humidity: 94 % 77 % 87 %
Wind Speed: 9.0 mph /  14.5 km/h - 6 mph /  9.7 km/h
Wind Gust: 18.0 mph /  29 km/h - -
Wind:- - NW
Pressure: 30.34 in /  1027.3 hPa 30.03 in /  1016.8 hPa -
Precipitation: 0.03 in /  0.76 mm    
Historical Graphs
 
 
Tabular Data for December 1, 2017
Time Temperature Dew Point Pressure Wind Wind Speed Wind Gust Humidity Rainfall Rate (Hourly) solar Conditions
00:00 35.6 °F /  2 °C 33.5 °F /  0.8 °C 30.03 in /  1016.8 hPa NNW 8.0 mph /  12.9 km/h 13.0 mph /  20.9 km/h 92 % 0.01 in /  0.25 mm 0 W/m2
00:05 35.6 °F /  2 °C 33.5 °F /  0.8 °C 30.04 in /  1017.2 hPa NNW 7.0 mph /  11.3 km/h 18.0 mph /  29 km/h 92 % 0.02 in /  0.51 mm 0 W/m2
00:10 35.6 °F /  2 °C 33.5 °F /  0.8 °C 30.03 in /  1016.8 hPa North 8.0 mph /  12.9 km/h 16.0 mph /  25.7 km/h 92 % 0.02 in /  0.51 mm 0 W/m2
00:15 35.2 °F /  1.8 °C 33.1 °F /  0.6 °C 30.03 in /  1016.8 hPa NNW 8.0 mph /  12.9 km/h 14.0 mph /  22.5 km/h 92 % 0.02 in /  0.51 mm 0 W/m2
00:20 34.9 °F /  1.6 °C 32.8 °F /  0.4 °C 30.03 in /  1016.8 hPa NW 9.0 mph /  14.5 km/h 14.0 mph /  22.5 km/h 92 % 0.02 in /  0.51 mm 0 W/m2
00:25 34.9 °F /  1.6 °C 32.8 °F /  0.4 °C 30.04 in /  1017.2 hPa NNW 7.0 mph /  11.3 km/h 13.0 mph /  20.9 km/h 92 % 0.02 in /  0.51 mm 0 W/m2
00:30 34.5 °F /  1.4 °C 32.4 °F /  0.2 °C 30.04 in /  1017.2 hPa NW 6.0 mph /  9.7 km/h 11.0 mph /  17.7 km/h 92 % 0.02 in /  0.51 mm 0 W/m2
00:40 34.5 °F /  1.4 °C 32.7 °F /  0.4 °C 30.03 in /  1016.8 hPa NW 6.0 mph /  9.7 km/h 9.0 mph /  14.5 km/h 93 % 0.02 in /  0.51 mm 0 W/m2
00:41 34.5 °F /  1.4 °C 32.7 °F /  0.4 °C 30.03 in /  1016.8 hPa NW 6.0 mph /  9.7 km/h 9.0 mph /  14.5 km/h 93 % 0.02 in /  0.51 mm 0 W/m2
00:46 34.5 °F /  1.4 °C 32.7 °F /  0.4 °C 30.04 in /  1017.2 hPa NW 7.0 mph /  11.3 km/h 10.0 mph /  16.1 km/h 93 % 0.02 in /  0.51 mm 0 W/m2
00:51 34.7 °F /  1.5 °C 32.9 °F /  0.5 °C 30.04 in /  1017.2 hPa NW 6.0 mph /  9.7 km/h 13.0 mph /  20.9 km/h 93 % 0.02 in /  0.51 mm 0 W/m2
01:01 34.9 °F /  1.6 °C 33.3 °F /  0.7 °C 30.04 in /  1017.2 hPa NNW 6.0 mph /  9.7 km/h 13.0 mph /  20.9 km/h 94 % 0.02 in /  0.51 mm 0 W/m2
01:06 35.1 °F /  1.7 °C 33.2 °F /  0.7 °C 30.04 in /  1017.2 hPa NW 7.0 mph /  11.3 km/h 12.0 mph /  19.3 km/h 93 % 0.02 in /  0.51 mm 0 W/m2
01:11 35.1 °F /  1.7 °C 33.2 °F /  0.7 °C 30.05 in /  1017.5 hPa NW 7.0 mph /  11.3 km/h 13.0 mph /  20.9 km/h 93 % 0.02 in /  0.51 mm 0 W/m2
01:21 35.1 °F /  1.7 °C 33.2 °F /  0.7 °C 30.05 in /  1017.5 hPa NW 7.0 mph /  11.3 km/h 10.0 mph /  16.1 km/h 93 % 0.01 in /  0.25 mm 0 W/m2
01:26 35.1 °F /  1.7 °C 33.2 °F /  0.7 °C 30.05 in /  1017.5 hPa NW 7.0 mph /  11.3 km/h 13.0 mph /  20.9 km/h 93 % 0.01 in /  0.25 mm 0 W/m2
01:31 35.1 °F /  1.7 °C 33.2 °F /  0.7 °C 30.05 in /  1017.5 hPa NW 7.0 mph /  11.3 km/h 11.0 mph /  17.7 km/h 93 % 0.01 in /  0.25 mm 0 W/m2
01:46 35.4 °F /  1.9 °C 33.9 °F /  1.1 °C 30.06 in /  1017.8 hPa NNW 9.0 mph /  14.5 km/h 13.0 mph /  20.9 km/h 94 % 0.01 in /  0.25 mm 0 W/m2
01:51 35.4 °F /  1.9 °C 33.6 °F /  0.9 °C 30.06 in /  1017.8 hPa NW 9.0 mph /  14.5 km/h 15.0 mph /  24.1 km/h 93 % 0.01 in /  0.25 mm 0 W/m2
02:01 35.6 °F /  2 °C 33.8 °F /  1 °C 30.06 in /  1017.8 hPa NNW 7.0 mph /  11.3 km/h 18.0 mph /  29 km/h 93 % 0.00 in /  0 mm 0 W/m2
02:06 35.6 °F /  2 °C 33.8 °F /  1 °C 30.07 in /  1018.2 hPa NW 7.0 mph /  11.3 km/h 12.0 mph /  19.3 km/h 93 % 0.00 in /  0 mm 0 W/m2
02:11 35.6 °F /  2 °C 33.8 °F /  1 °C 30.07 in /  1018.2 hPa NW 7.0 mph /  11.3 km/h 13.0 mph /  20.9 km/h 93 % 0.00 in /  0 mm 0 W/m2
02:21 35.4 °F /  1.9 °C 33.6 °F /  0.9 °C 30.07 in /  1018.2 hPa NW 5.0 mph /  8 km/h 10.0 mph /  16.1 km/h 93 % 0.00 in /  0 mm 0 W/m2
02:26 35.4 °F /  1.9 °C 33.6 °F /  0.9 °C 30.07 in /  1018.2 hPa NW 6.0 mph /  9.7 km/h 12.0 mph /  19.3 km/h 93 % 0.00 in /  0 mm 0 W/m2
02:36 35.6 °F /  2 °C 33.8 °F /  1 °C 30.08 in /  1018.5 hPa NW 7.0 mph /  11.3 km/h 15.0 mph /  24.1 km/h 93 % 0.00 in /  0 mm 0 W/m2
02:41 35.6 °F /  2 °C 33.8 °F /  1 °C 30.08 in /  1018.5 hPa NW 7.0 mph /  11.3 km/h 11.0 mph /  17.7 km/h 93 % 0.00 in /  0 mm 0 W/m2
02:46 35.4 °F /  1.9 °C 33.6 °F /  0.9 °C 30.08 in /  1018.5 hPa NW 8.0 mph /  12.9 km/h 13.0 mph /  20.9 km/h 93 % 0.00 in /  0 mm 0 W/m2
02:56 35.4 °F /  1.9 °C 33.3 °F /  0.7 °C 30.09 in /  1018.8 hPa NW 7.0 mph /  11.3 km/h 12.0 mph /  19.3 km/h 92 % 0.00 in /  0 mm 0 W/m2
03:01 35.4 °F /  1.9 °C 33.6 °F /  0.9 °C 30.09 in /  1018.8 hPa NW 7.0 mph /  11.3 km/h 13.0 mph /  20.9 km/h 93 % 0.00 in /  0 mm 0 W/m2
03:13 35.6 °F /  2 °C 33.8 °F /  1 °C 30.10 in /  1019.2 hPa NW 8.0 mph /  12.9 km/h 14.0 mph /  22.5 km/h 93 % 0.00 in /  0 mm 0 W/m2
03:19 35.8 °F /  2.1 °C 34.0 °F /  1.1 °C 30.10 in /  1019.2 hPa NW 7.0 mph /  11.3 km/h 12.0 mph /  19.3 km/h 93 % 0.00 in /  0 mm 0 W/m2
03:25 35.8 °F /  2.1 °C 34.0 °F /  1.1 °C 30.10 in /  1019.2 hPa NW 8.0 mph /  12.9 km/h 12.0 mph /  19.3 km/h 93 % 0.00 in /  0 mm 0 W/m2
03:27 35.8 °F /  2.1 °C 34.0 °F /  1.1 °C 30.10 in /  1019.2 hPa NW 8.0 mph /  12.9 km/h 12.0 mph /  19.3 km/h 93 % 0.00 in /  0 mm 0 W/m2
03:31 35.8 °F /  2.1 °C 33.7 °F /  0.9 °C 30.10 in /  1019.2 hPa NW 6.0 mph /  9.7 km/h 10.0 mph /  16.1 km/h 92 % 0.00 in /  0 mm 0 W/m2
03:36 35.8 °F /  2.1 °C 33.7 °F /  0.9 °C 30.11 in /  1019.5 hPa NW 5.0 mph /  8 km/h 9.0 mph /  14.5 km/h 92 % 0.00 in /  0 mm 0 W/m2
03:41 35.8 °F /  2.1 °C 33.7 °F /  0.9 °C 30.11 in /  1019.5 hPa NW 6.0 mph /  9.7 km/h 12.0 mph /  19.3 km/h 92 % 0.00 in /  0 mm 0 W/m2
03:45 35.8 °F /  2.1 °C 34.0 °F /  1.1 °C 30.11 in /  1019.5 hPa NW 6.0 mph /  9.7 km/h 10.0 mph /  16.1 km/h 93 % 0.00 in /  0 mm 0 W/m2
03:50 35.6 °F /  2 °C 33.8 °F /  1 °C 30.12 in /  1019.9 hPa NW 7.0 mph /  11.3 km/h 13.0 mph /  20.9 km/h 93 % 0.00 in /  0 mm 0 W/m2
03:55 35.6 °F /  2 °C 33.8 °F /  1 °C 30.12 in /  1019.9 hPa NW 6.0 mph /  9.7 km/h 9.0 mph /  14.5 km/h 93 % 0.00 in /  0 mm 0 W/m2
04:00 35.4 °F /  1.9 °C 33.3 °F /  0.7 °C 30.12 in /  1019.9 hPa NW 5.0 mph /  8 km/h 9.0 mph /  14.5 km/h 92 % 0.00 in /  0 mm 0 W/m2
04:11 35.2 °F /  1.8 °C 33.4 °F /  0.8 °C 30.13 in /  1020.2 hPa NW 5.0 mph /  8 km/h 9.0 mph /  14.5 km/h 93 % 0.00 in /  0 mm 0 W/m2
04:12 35.2 °F /  1.8 °C 33.4 °F /  0.8 °C 30.13 in /  1020.2 hPa NW 6.0 mph /  9.7 km/h 9.0 mph /  14.5 km/h 93 % 0.00 in /  0 mm 0 W/m2
04:17 35.2 °F /  1.8 °C 33.4 °F /  0.8 °C 30.13 in /  1020.2 hPa NW 8.0 mph /  12.9 km/h 14.0 mph /  22.5 km/h 93 % 0.00 in /  0 mm 0 W/m2
04:22 35.2 °F /  1.8 °C 33.4 °F /  0.8 °C 30.13 in /  1020.2 hPa NW 7.0 mph /  11.3 km/h 13.0 mph /  20.9 km/h 93 % 0.00 in /  0 mm 0 W/m2
04:27 35.2 °F /  1.8 °C 33.4 °F /  0.8 °C 30.13 in /  1020.2 hPa NW 7.0 mph /  11.3 km/h 12.0 mph /  19.3 km/h 93 % 0.00 in /  0 mm 0 W/m2
04:29 35.2 °F /  1.8 °C 33.4 °F /  0.8 °C 30.13 in /  1020.2 hPa NW 6.0 mph /  9.7 km/h 11.0 mph /  17.7 km/h 93 % 0.00 in /  0 mm 0 W/m2
04:34 35.4 °F /  1.9 °C 33.6 °F /  0.9 °C 30.14 in /  1020.5 hPa NW 7.0 mph /  11.3 km/h 12.0 mph /  19.3 km/h 93 % 0.00 in /  0 mm 0 W/m2
04:44 35.4 °F /  1.9 °C 33.6 °F /  0.9 °C 30.14 in /  1020.5 hPa NW 7.0 mph /  11.3 km/h 11.0 mph /  17.7 km/h 93 % 0.00 in /  0 mm 0 W/m2
04:54 35.6 °F /  2 °C 33.8 °F /  1 °C 30.14 in /  1020.5 hPa NW 9.0 mph /  14.5 km/h 14.0 mph /  22.5 km/h 93 % 0.00 in /  0 mm 0 W/m2
04:59 35.8 °F /  2.1 °C 34.0 °F /  1.1 °C 30.14 in /  1020.5 hPa NW 6.0 mph /  9.7 km/h 14.0 mph /  22.5 km/h 93 % 0.00 in /  0 mm 0 W/m2
05:04 35.8 °F /  2.1 °C 34.0 °F /  1.1 °C 30.14 in /  1020.5 hPa NW 7.0 mph /  11.3 km/h 12.0 mph /  19.3 km/h 93 % 0.00 in /  0 mm 0 W/m2
05:09 36.0 °F /  2.2 °C 34.1 °F /  1.2 °C 30.14 in /  1020.5 hPa NW 8.0 mph /  12.9 km/h 14.0 mph /  22.5 km/h 93 % 0.00 in /  0 mm 0 W/m2
05:14 36.0 °F /  2.2 °C 34.1 °F /  1.2 °C 30.15 in /  1020.9 hPa NW 6.0 mph /  9.7 km/h 11.0 mph /  17.7 km/h 93 % 0.00 in /  0 mm 0 W/m2
05:19 36.0 °F /  2.2 °C 34.1 °F /  1.2 °C 30.15 in /  1020.9 hPa NW 7.0 mph /  11.3 km/h 12.0 mph /  19.3 km/h 93 % 0.00 in /  0 mm 0 W/m2
05:24 36.0 °F /  2.2 °C 34.1 °F /  1.2 °C 30.15 in /  1020.9 hPa NW 5.0 mph /  8 km/h 8.0 mph /  12.9 km/h 93 % 0.00 in /  0 mm 0 W/m2
05:29 36.0 °F /  2.2 °C 34.1 °F /  1.2 °C 30.15 in /  1020.9 hPa NW 6.0 mph /  9.7 km/h 11.0 mph /  17.7 km/h 93 % 0.01 in /  0.25 mm 0 W/m2
05:39 36.0 °F /  2.2 °C 34.1 °F /  1.2 °C 30.15 in /  1020.9 hPa NW 6.0 mph /  9.7 km/h 9.0 mph /  14.5 km/h 93 % 0.01 in /  0.25 mm 0 W/m2
05:44 36.0 °F /  2.2 °C 34.1 °F /  1.2 °C 30.15 in /  1020.9 hPa NW 7.0 mph /  11.3 km/h 12.0 mph /  19.3 km/h 93 % 0.01 in /  0.25 mm 0 W/m2
05:54 35.8 °F /  2.1 °C 33.7 °F /  0.9 °C 30.16 in /  1021.2 hPa NW 6.0 mph /  9.7 km/h 11.0 mph /  17.7 km/h 92 % 0.01 in /  0.25 mm 0 W/m2
05:59 35.8 °F /  2.1 °C 34.0 °F /  1.1 °C 30.16 in /  1021.2 hPa NW 5.0 mph /  8 km/h 8.0 mph /  12.9 km/h 93 % 0.01 in /  0.25 mm 0 W/m2
06:04 35.6 °F /  2 °C 33.5 °F /  0.8 °C 30.16 in /  1021.2 hPa WNW 1.0 mph /  1.6 km/h 5.0 mph /  8 km/h 92 % 0.01 in /  0.25 mm 0 W/m2
06:09 35.4 °F /  1.9 °C 33.3 °F /  0.7 °C 30.16 in /  1021.2 hPa NW 3.0 mph /  4.8 km/h 6.0 mph /  9.7 km/h 92 % 0.01 in /  0.25 mm 0 W/m2
06:14 35.2 °F /  1.8 °C 33.1 °F /  0.6 °C 30.17 in /  1021.6 hPa NW 5.0 mph /  8 km/h 9.0 mph /  14.5 km/h 92 % 0.01 in /  0.25 mm 0 W/m2
06:19 35.2 °F /  1.8 °C 33.1 °F /  0.6 °C 30.17 in /  1021.6 hPa WNW 5.0 mph /  8 km/h 8.0 mph /  12.9 km/h 92 % 0.01 in /  0.25 mm 0 W/m2
06:24 35.2 °F /  1.8 °C 33.4 °F /  0.8 °C 30.17 in /  1021.6 hPa NW 6.0 mph /  9.7 km/h 8.0 mph /  12.9 km/h 93 % 0.01 in /  0.25 mm 0 W/m2
06:29 35.2 °F /  1.8 °C 33.4 °F /  0.8 °C 30.17 in /  1021.6 hPa NW 6.0 mph /  9.7 km/h 10.0 mph /  16.1 km/h 93 % 0.00 in /  0 mm 0 W/m2
06:35 35.2 °F /  1.8 °C 33.4 °F /  0.8 °C 30.17 in /  1021.6 hPa NW 6.0 mph /  9.7 km/h 10.0 mph /  16.1 km/h 93 % 0.00 in /  0 mm 0 W/m2
06:40 35.2 °F /  1.8 °C 33.4 °F /  0.8 °C 30.17 in /  1021.6 hPa NW 7.0 mph /  11.3 km/h 11.0 mph /  17.7 km/h 93 % 0.00 in /  0 mm 0 W/m2
06:45 35.4 °F /  1.9 °C 33.6 °F /  0.9 °C 30.18 in /  1021.9 hPa NW 7.0 mph /  11.3 km/h 12.0 mph /  19.3 km/h 93 % 0.00 in /  0 mm 0 W/m2
06:50 35.4 °F /  1.9 °C 33.6 °F /  0.9 °C 30.18 in /  1021.9 hPa NW 7.0 mph /  11.3 km/h 11.0 mph /  17.7 km/h 93 % 0.00 in /  0 mm 0 W/m2
06:55 35.4 °F /  1.9 °C 33.6 °F /  0.9 °C 30.18 in /  1021.9 hPa NW 8.0 mph /  12.9 km/h 13.0 mph /  20.9 km/h 93 % 0.00 in /  0 mm 0 W/m2
07:00 35.6 °F /  2 °C 33.8 °F /  1 °C 30.19 in /  1022.2 hPa NW 6.0 mph /  9.7 km/h 10.0 mph /  16.1 km/h 93 % 0.00 in /  0 mm 0 W/m2
07:05 35.8 °F /  2.1 °C 34.0 °F /  1.1 °C 30.19 in /  1022.2 hPa NW 7.0 mph /  11.3 km/h 11.0 mph /  17.7 km/h 93 % 0.00 in /  0 mm 0 W/m2
07:10 36.0 °F /  2.2 °C 34.1 °F /  1.2 °C 30.19 in /  1022.2 hPa NW 6.0 mph /  9.7 km/h 9.0 mph /  14.5 km/h 93 % 0.00 in /  0 mm 0 W/m2
07:15 36.0 °F /  2.2 °C 34.1 °F /  1.2 °C 30.19 in /  1022.2 hPa NW 5.0 mph /  8 km/h 11.0 mph /  17.7 km/h 93 % 0.00 in /  0 mm 0 W/m2
07:20 36.1 °F /  2.3 °C 34.3 °F /  1.3 °C 30.20 in /  1022.6 hPa NNW 5.0 mph /  8 km/h 7.0 mph /  11.3 km/h 93 % 0.00 in /  0 mm 0 W/m2
07:25 36.1 °F /  2.3 °C 34.3 °F /  1.3 °C 30.20 in /  1022.6 hPa NW 7.0 mph /  11.3 km/h 11.0 mph /  17.7 km/h 93 % 0.00 in /  0 mm 0 W/m2
07:30 36.1 °F /  2.3 °C 34.3 °F /  1.3 °C 30.20 in /  1022.6 hPa NW 6.0 mph /  9.7 km/h 11.0 mph /  17.7 km/h 93 % 0.00 in /  0 mm 0 W/m2
07:35 36.3 °F /  2.4 °C 34.5 °F /  1.4 °C 30.20 in /  1022.6 hPa NW 5.0 mph /  8 km/h 9.0 mph /  14.5 km/h 93 % 0.00 in /  0 mm 0 W/m2
07:40 36.3 °F /  2.4 °C 34.5 °F /  1.4 °C 30.20 in /  1022.6 hPa NW 6.0 mph /  9.7 km/h 10.0 mph /  16.1 km/h 93 % 0.00 in /  0 mm 0 W/m2
07:45 36.3 °F /  2.4 °C 34.5 °F /  1.4 °C 30.21 in /  1022.9 hPa NW 8.0 mph /  12.9 km/h 11.0 mph /  17.7 km/h 93 % 0.00 in /  0 mm 0 W/m2
07:50 36.3 °F /  2.4 °C 34.5 °F /  1.4 °C 30.21 in /  1022.9 hPa NNW 7.0 mph /  11.3 km/h 10.0 mph /  16.1 km/h 93 % 0.00 in /  0 mm 0 W/m2
07:55 36.5 °F /  2.5 °C 34.7 °F /  1.5 °C 30.21 in /  1022.9 hPa NNW 7.0 mph /  11.3 km/h 12.0 mph /  19.3 km/h 93 % 0.00 in /  0 mm 0 W/m2
08:00 36.7 °F /  2.6 °C 34.6 °F /  1.4 °C 30.22 in /  1023.2 hPa NW 7.0 mph /  11.3 km/h 9.0 mph /  14.5 km/h 92 % 0.00 in /  0 mm 0 W/m2
08:05 36.7 °F /  2.6 °C 34.8 °F /  1.6 °C 30.21 in /  1022.9 hPa NW 6.0 mph /  9.7 km/h 12.0 mph /  19.3 km/h 93 % 0.00 in /  0 mm 5 W/m2
08:10 36.7 °F /  2.6 °C 34.8 °F /  1.6 °C 30.22 in /  1023.2 hPa NW 6.0 mph /  9.7 km/h 10.0 mph /  16.1 km/h 93 % 0.00 in /  0 mm 7 W/m2
08:15 36.7 °F /  2.6 °C 34.6 °F /  1.4 °C 30.22 in /  1023.2 hPa NW 8.0 mph /  12.9 km/h 14.0 mph /  22.5 km/h 92 % 0.00 in /  0 mm 9 W/m2
08:20 36.7 °F /  2.6 °C 34.6 °F /  1.4 °C 30.23 in /  1023.6 hPa NNW 6.0 mph /  9.7 km/h 9.0 mph /  14.5 km/h 92 % 0.00 in /  0 mm 12 W/m2
08:25 36.7 °F /  2.6 °C 34.6 °F /  1.4 °C 30.23 in /  1023.6 hPa NNW 6.0 mph /  9.7 km/h 11.0 mph /  17.7 km/h 92 % 0.00 in /  0 mm 16 W/m2
08:30 36.7 °F /  2.6 °C 34.6 °F /  1.4 °C 30.23 in /  1023.6 hPa NNW 5.0 mph /  8 km/h 10.0 mph /  16.1 km/h 92 % 0.00 in /  0 mm 14 W/m2
08:35 36.9 °F /  2.7 °C 34.8 °F /  1.6 °C 30.23 in /  1023.6 hPa NNW 6.0 mph /  9.7 km/h 10.0 mph /  16.1 km/h 92 % 0.00 in /  0 mm 18 W/m2
08:40 36.9 °F /  2.7 °C 34.8 °F /  1.6 °C 30.24 in /  1023.9 hPa NNW 7.0 mph /  11.3 km/h 11.0 mph /  17.7 km/h 92 % 0.00 in /  0 mm 21 W/m2
08:45 37.0 °F /  2.8 °C 34.9 °F /  1.6 °C 30.24 in /  1023.9 hPa NW 6.0 mph /  9.7 km/h 11.0 mph /  17.7 km/h 92 % 0.00 in /  0 mm 21 W/m2
08:50 37.0 °F /  2.8 °C 34.9 °F /  1.6 °C 30.24 in /  1023.9 hPa NNW 6.0 mph /  9.7 km/h 10.0 mph /  16.1 km/h 92 % 0.00 in /  0 mm 25 W/m2
09:00 36.9 °F /  2.7 °C 34.8 °F /  1.6 °C 30.24 in /  1023.9 hPa NNW 4.0 mph /  6.4 km/h 10.0 mph /  16.1 km/h 92 % 0.00 in /  0 mm 21 W/m2
09:05 36.9 °F /  2.7 °C 34.8 °F /  1.6 °C 30.24 in /  1023.9 hPa NW 7.0 mph /  11.3 km/h 10.0 mph /  16.1 km/h 92 % 0.00 in /  0 mm 30 W/m2
09:10 36.9 °F /  2.7 °C 34.8 °F /  1.6 °C 30.24 in /  1023.9 hPa NNW 5.0 mph /  8 km/h 10.0 mph /  16.1 km/h 92 % 0.00 in /  0 mm 86 W/m2
09:15 36.9 °F /  2.7 °C 34.8 °F /  1.6 °C 30.25 in /  1024.3 hPa NW 6.0 mph /  9.7 km/h 10.0 mph /  16.1 km/h 92 % 0.00 in /  0 mm 109 W/m2
09:20 36.9 °F /  2.7 °C 34.8 °F /  1.6 °C 30.25 in /  1024.3 hPa NW 7.0 mph /  11.3 km/h 14.0 mph /  22.5 km/h 92 % 0.00 in /  0 mm 46 W/m2
09:26 37.0 °F /  2.8 °C 34.9 °F /  1.6 °C 30.25 in /  1024.3 hPa NW 8.0 mph /  12.9 km/h 16.0 mph /  25.7 km/h 92 % 0.00 in /  0 mm 42 W/m2
09:31 37.0 °F /  2.8 °C 34.9 °F /  1.6 °C 30.25 in /  1024.3 hPa NW 6.0 mph /  9.7 km/h 12.0 mph /  19.3 km/h 92 % 0.00 in /  0 mm 160 W/m2
09:36 37.4 °F /  3 °C 35.3 °F /  1.8 °C 30.25 in /  1024.3 hPa NW 6.0 mph /  9.7 km/h 12.0 mph /  19.3 km/h 92 % 0.00 in /  0 mm 109 W/m2
09:41 37.8 °F /  3.2 °C 35.6 °F /  2 °C 30.26 in /  1024.6 hPa NW 7.0 mph /  11.3 km/h 12.0 mph /  19.3 km/h 92 % 0.00 in /  0 mm 74 W/m2
09:46 37.9 °F /  3.3 °C 35.8 °F /  2.1 °C 30.26 in /  1024.6 hPa NW 9.0 mph /  14.5 km/h 14.0 mph /  22.5 km/h 92 % 0.00 in /  0 mm 69 W/m2
09:56 37.9 °F /  3.3 °C 35.5 °F /  1.9 °C 30.26 in /  1024.6 hPa NW 8.0 mph /  12.9 km/h 12.0 mph /  19.3 km/h 91 % 0.00 in /  0 mm 72 W/m2
10:06 37.9 °F /  3.3 °C 35.5 °F /  1.9 °C 30.26 in /  1024.6 hPa NW 3.0 mph /  4.8 km/h 10.0 mph /  16.1 km/h 91 % 0.00 in /  0 mm 37 W/m2
10:11 37.9 °F /  3.3 °C 35.5 °F /  1.9 °C 30.27 in /  1024.9 hPa NW 6.0 mph /  9.7 km/h 10.0 mph /  16.1 km/h 91 % 0.00 in /  0 mm 39 W/m2
10:16 37.9 °F /  3.3 °C 35.5 °F /  1.9 °C 30.27 in /  1024.9 hPa NW 9.0 mph /  14.5 km/h 14.0 mph /  22.5 km/h 91 % 0.00 in /  0 mm 54 W/m2
10:21 37.9 °F /  3.3 °C 35.3 °F /  1.8 °C 30.27 in /  1024.9 hPa NNW 6.0 mph /  9.7 km/h 12.0 mph /  19.3 km/h 90 % 0.00 in /  0 mm 79 W/m2
10:26 38.1 °F /  3.4 °C 35.7 °F /  2.1 °C 30.27 in /  1024.9 hPa NW 6.0 mph /  9.7 km/h 11.0 mph /  17.7 km/h 91 % 0.00 in /  0 mm 137 W/m2
10:31 38.5 °F /  3.6 °C 36.1 °F /  2.3 °C 30.27 in /  1024.9 hPa NW 6.0 mph /  9.7 km/h 9.0 mph /  14.5 km/h 91 % 0.00 in /  0 mm 90 W/m2
10:36 38.5 °F /  3.6 °C 36.1 °F /  2.3 °C 30.27 in /  1024.9 hPa NNW 6.0 mph /  9.7 km/h 9.0 mph /  14.5 km/h 91 % 0.00 in /  0 mm 79 W/m2
10:41 38.7 °F /  3.7 °C 36.0 °F /  2.2 °C 30.27 in /  1024.9 hPa NW 6.0 mph /  9.7 km/h 10.0 mph /  16.1 km/h 90 % 0.00 in /  0 mm 102 W/m2
10:46 38.8 °F /  3.8 °C 36.2 °F /  2.3 °C 30.27 in /  1024.9 hPa NW 7.0 mph /  11.3 km/h 11.0 mph /  17.7 km/h 90 % 0.00 in /  0 mm 76 W/m2
10:51 38.8 °F /  3.8 °C 36.2 °F /  2.3 °C 30.27 in /  1024.9 hPa NW 5.0 mph /  8 km/h 9.0 mph /  14.5 km/h 90 % 0.00 in /  0 mm 113 W/m2
11:01 39.2 °F /  4 °C 36.2 °F /  2.3 °C 30.27 in /  1024.9 hPa NNW 6.0 mph /  9.7 km/h 10.0 mph /  16.1 km/h 89 % 0.00 in /  0 mm 90 W/m2
11:06 39.2 °F /  4 °C 36.2 °F /  2.3 °C 30.27 in /  1024.9 hPa NNW 6.0 mph /  9.7 km/h 11.0 mph /  17.7 km/h 89 % 0.00 in /  0 mm 98 W/m2
11:11 39.2 °F /  4 °C 36.2 °F /  2.3 °C 30.27 in /  1024.9 hPa NNW 6.0 mph /  9.7 km/h 10.0 mph /  16.1 km/h 89 % 0.00 in /  0 mm 90 W/m2
11:16 39.4 °F /  4.1 °C 36.4 °F /  2.4 °C 30.27 in /  1024.9 hPa NNW 8.0 mph /  12.9 km/h 15.0 mph /  24.1 km/h 89 % 0.00 in /  0 mm 97 W/m2
11:21 39.7 °F /  4.3 °C 36.8 °F /  2.7 °C 30.27 in /  1024.9 hPa NW 3.0 mph /  4.8 km/h 10.0 mph /  16.1 km/h 89 % 0.00 in /  0 mm 132 W/m2
11:26 39.7 °F /  4.3 °C 36.5 °F /  2.5 °C 30.27 in /  1024.9 hPa NNW 8.0 mph /  12.9 km/h 13.0 mph /  20.9 km/h 88 % 0.00 in /  0 mm 156 W/m2
11:32 39.9 °F /  4.4 °C 36.7 °F /  2.6 °C 30.27 in /  1024.9 hPa NNW 9.0 mph /  14.5 km/h 16.0 mph /  25.7 km/h 88 % 0.00 in /  0 mm 97 W/m2
11:37 39.9 °F /  4.4 °C 36.4 °F /  2.4 °C 30.27 in /  1024.9 hPa NNW 8.0 mph /  12.9 km/h 12.0 mph /  19.3 km/h 87 % 0.00 in /  0 mm 93 W/m2
11:42 40.3 °F /  4.6 °C 37.0 °F /  2.8 °C 30.27 in /  1024.9 hPa NNW 6.0 mph /  9.7 km/h 10.0 mph /  16.1 km/h 88 % 0.00 in /  0 mm 285 W/m2
11:47 40.6 °F /  4.8 °C 37.1 °F /  2.8 °C 30.27 in /  1024.9 hPa NNW 5.0 mph /  8 km/h 9.0 mph /  14.5 km/h 87 % 0.00 in /  0 mm 225 W/m2
11:52 40.8 °F /  4.9 °C 37.3 °F /  2.9 °C 30.28 in /  1025.3 hPa NNW 5.0 mph /  8 km/h 12.0 mph /  19.3 km/h 87 % 0.00 in /  0 mm 169 W/m2
12:02 40.8 °F /  4.9 °C 37.0 °F /  2.8 °C 30.27 in /  1024.9 hPa NNW 6.0 mph /  9.7 km/h 12.0 mph /  19.3 km/h 86 % 0.00 in /  0 mm 120 W/m2
12:07 40.6 °F /  4.8 °C 36.8 °F /  2.7 °C 30.27 in /  1024.9 hPa North 6.0 mph /  9.7 km/h 11.0 mph /  17.7 km/h 86 % 0.00 in /  0 mm 148 W/m2
12:18 40.8 °F /  4.9 °C 37.0 °F /  2.8 °C 30.28 in /  1025.3 hPa North 5.0 mph /  8 km/h 9.0 mph /  14.5 km/h 86 % 0.00 in /  0 mm 255 W/m2
12:28 41.4 °F /  5.2 °C 37.2 °F /  2.9 °C 30.27 in /  1024.9 hPa NNW 5.0 mph /  8 km/h 8.0 mph /  12.9 km/h 85 % 0.00 in /  0 mm 253 W/m2
12:38 41.7 °F /  5.4 °C 37.5 °F /  3.1 °C 30.28 in /  1025.3 hPa NNE 3.0 mph /  4.8 km/h 8.0 mph /  12.9 km/h 85 % 0.00 in /  0 mm 95 W/m2
12:48 41.5 °F /  5.3 °C 36.8 °F /  2.7 °C 30.28 in /  1025.3 hPa NNW 5.0 mph /  8 km/h 11.0 mph /  17.7 km/h 83 % 0.00 in /  0 mm 58 W/m2
12:53 41.4 °F /  5.2 °C 36.9 °F /  2.7 °C 30.28 in /  1025.3 hPa NNW 3.0 mph /  4.8 km/h 6.0 mph /  9.7 km/h 84 % 0.00 in /  0 mm 70 W/m2
12:58 41.4 °F /  5.2 °C 36.9 °F /  2.7 °C 30.28 in /  1025.3 hPa NNW 6.0 mph /  9.7 km/h 10.0 mph /  16.1 km/h 84 % 0.00 in /  0 mm 98 W/m2
13:03 41.2 °F /  5.1 °C 36.7 °F /  2.6 °C 30.28 in /  1025.3 hPa NNW 7.0 mph /  11.3 km/h 12.0 mph /  19.3 km/h 84 % 0.00 in /  0 mm 60 W/m2
13:13 41.4 °F /  5.2 °C 36.9 °F /  2.7 °C 30.28 in /  1025.3 hPa NW 5.0 mph /  8 km/h 9.0 mph /  14.5 km/h 84 % 0.00 in /  0 mm 86 W/m2
13:18 41.5 °F /  5.3 °C 37.1 °F /  2.8 °C 30.28 in /  1025.3 hPa NNW 8.0 mph /  12.9 km/h 12.0 mph /  19.3 km/h 84 % 0.00 in /  0 mm 58 W/m2
13:23 41.5 °F /  5.3 °C 36.8 °F /  2.7 °C 30.28 in /  1025.3 hPa NNW 6.0 mph /  9.7 km/h 11.0 mph /  17.7 km/h 83 % 0.00 in /  0 mm 69 W/m2
13:28 41.4 °F /  5.2 °C 36.6 °F /  2.6 °C 30.28 in /  1025.3 hPa NNW 9.0 mph /  14.5 km/h 14.0 mph /  22.5 km/h 83 % 0.00 in /  0 mm 65 W/m2
13:48 41.2 °F /  5.1 °C 36.7 °F /  2.6 °C 30.28 in /  1025.3 hPa NW 8.0 mph /  12.9 km/h 13.0 mph /  20.9 km/h 84 % 0.00 in /  0 mm 149 W/m2
13:53 41.4 °F /  5.2 °C 36.9 °F /  2.7 °C 30.28 in /  1025.3 hPa NW 8.0 mph /  12.9 km/h 12.0 mph /  19.3 km/h 84 % 0.00 in /  0 mm 134 W/m2
14:03 42.1 °F /  5.6 °C 37.3 °F /  2.9 °C 30.28 in /  1025.3 hPa NW 7.0 mph /  11.3 km/h 11.0 mph /  17.7 km/h 83 % 0.00 in /  0 mm 123 W/m2
14:08 42.1 °F /  5.6 °C 37.0 °F /  2.8 °C 30.28 in /  1025.3 hPa NW 8.0 mph /  12.9 km/h 11.0 mph /  17.7 km/h 82 % 0.00 in /  0 mm 111 W/m2
14:13 41.9 °F /  5.5 °C 36.8 °F /  2.7 °C 30.28 in /  1025.3 hPa NW 7.0 mph /  11.3 km/h 11.0 mph /  17.7 km/h 82 % 0.00 in /  0 mm 88 W/m2
14:23 41.5 °F /  5.3 °C 36.5 °F /  2.5 °C 30.28 in /  1025.3 hPa NW 8.0 mph /  12.9 km/h 14.0 mph /  22.5 km/h 82 % 0.00 in /  0 mm 74 W/m2
14:28 41.4 °F /  5.2 °C 36.3 °F /  2.4 °C 30.29 in /  1025.6 hPa NW 7.0 mph /  11.3 km/h 12.0 mph /  19.3 km/h 82 % 0.00 in /  0 mm 63 W/m2
14:33 41.2 °F /  5.1 °C 36.1 °F /  2.3 °C 30.29 in /  1025.6 hPa NNW 7.0 mph /  11.3 km/h 10.0 mph /  16.1 km/h 82 % 0.00 in /  0 mm 49 W/m2
14:38 41.0 °F /  5 °C 35.9 °F /  2.2 °C 30.29 in /  1025.6 hPa NW 7.0 mph /  11.3 km/h 10.0 mph /  16.1 km/h 82 % 0.00 in /  0 mm 44 W/m2
14:43 41.0 °F /  5 °C 35.9 °F /  2.2 °C 30.29 in /  1025.6 hPa NW 7.0 mph /  11.3 km/h 11.0 mph /  17.7 km/h 82 % 0.00 in /  0 mm 44 W/m2
14:48 40.8 °F /  4.9 °C 35.7 °F /  2.1 °C 30.29 in /  1025.6 hPa NNW 8.0 mph /  12.9 km/h 14.0 mph /  22.5 km/h 82 % 0.00 in /  0 mm 40 W/m2
14:58 40.6 °F /  4.8 °C 35.6 °F /  2 °C 30.30 in /  1026 hPa NNW 8.0 mph /  12.9 km/h 13.0 mph /  20.9 km/h 82 % 0.00 in /  0 mm 23 W/m2
15:03 40.5 °F /  4.7 °C 35.4 °F /  1.9 °C 30.30 in /  1026 hPa NNW 7.0 mph /  11.3 km/h 13.0 mph /  20.9 km/h 82 % 0.00 in /  0 mm 23 W/m2
15:18 40.3 °F /  4.6 °C 35.2 °F /  1.8 °C 30.30 in /  1026 hPa NNW 6.0 mph /  9.7 km/h 13.0 mph /  20.9 km/h 82 % 0.00 in /  0 mm 14 W/m2
15:23 40.1 °F /  4.5 °C 35.0 °F /  1.7 °C 30.30 in /  1026 hPa NW 7.0 mph /  11.3 km/h 12.0 mph /  19.3 km/h 82 % 0.00 in /  0 mm 12 W/m2
15:28 39.9 °F /  4.4 °C 34.9 °F /  1.6 °C 30.30 in /  1026 hPa NNW 5.0 mph /  8 km/h 14.0 mph /  22.5 km/h 82 % 0.00 in /  0 mm 11 W/m2
15:43 39.7 °F /  4.3 °C 35.0 °F /  1.7 °C 30.30 in /  1026 hPa NW 5.0 mph /  8 km/h 8.0 mph /  12.9 km/h 83 % 0.00 in /  0 mm 7 W/m2
15:59 39.7 °F /  4.3 °C 35.0 °F /  1.7 °C 30.31 in /  1026.3 hPa NW 5.0 mph /  8 km/h 10.0 mph /  16.1 km/h 83 % 0.00 in /  0 mm 0 W/m2
16:19 39.7 °F /  4.3 °C 35.0 °F /  1.7 °C 30.31 in /  1026.3 hPa WNW 3.0 mph /  4.8 km/h 7.0 mph /  11.3 km/h 83 % 0.00 in /  0 mm 0 W/m2
16:24 39.6 °F /  4.2 °C 34.8 °F /  1.6 °C 30.31 in /  1026.3 hPa WNW 4.0 mph /  6.4 km/h 6.0 mph /  9.7 km/h 83 % 0.00 in /  0 mm 0 W/m2
16:39 39.6 °F /  4.2 °C 35.1 °F /  1.7 °C 30.32 in /  1026.6 hPa NW 5.0 mph /  8 km/h 10.0 mph /  16.1 km/h 84 % 0.00 in /  0 mm 0 W/m2
16:40 39.4 °F /  4.1 °C 34.9 °F /  1.6 °C 30.32 in /  1026.6 hPa NW 6.0 mph /  9.7 km/h 10.0 mph /  16.1 km/h 84 % 0.00 in /  0 mm 0 W/m2
16:45 39.4 °F /  4.1 °C 34.9 °F /  1.6 °C 30.32 in /  1026.6 hPa NW 6.0 mph /  9.7 km/h 10.0 mph /  16.1 km/h 84 % 0.00 in /  0 mm 0 W/m2
16:50 39.4 °F /  4.1 °C 34.6 °F /  1.4 °C 30.32 in /  1026.6 hPa NW 5.0 mph /  8 km/h 8.0 mph /  12.9 km/h 83 % 0.00 in /  0 mm 0 W/m2
16:55 39.4 °F /  4.1 °C 34.6 °F /  1.4 °C 30.32 in /  1026.6 hPa NW 5.0 mph /  8 km/h 8.0 mph /  12.9 km/h 83 % 0.00 in /  0 mm 0 W/m2
17:00 39.4 °F /  4.1 °C 34.6 °F /  1.4 °C 30.32 in /  1026.6 hPa NW 5.0 mph /  8 km/h 10.0 mph /  16.1 km/h 83 % 0.00 in /  0 mm 0 W/m2
17:05 39.4 °F /  4.1 °C 34.6 °F /  1.4 °C 30.32 in /  1026.6 hPa NW 5.0 mph /  8 km/h 8.0 mph /  12.9 km/h 83 % 0.00 in /  0 mm 0 W/m2
17:10 39.4 °F /  4.1 °C 34.6 °F /  1.4 °C 30.32 in /  1026.6 hPa NW 5.0 mph /  8 km/h 10.0 mph /  16.1 km/h 83 % 0.00 in /  0 mm 0 W/m2
17:15 39.4 °F /  4.1 °C 34.6 °F /  1.4 °C 30.32 in /  1026.6 hPa NW 7.0 mph /  11.3 km/h 10.0 mph /  16.1 km/h 83 % 0.00 in /  0 mm 0 W/m2
17:20 39.6 °F /  4.2 °C 34.5 °F /  1.4 °C 30.32 in /  1026.6 hPa NW 5.0 mph /  8 km/h 8.0 mph /  12.9 km/h 82 % 0.00 in /  0 mm 0 W/m2
17:25 39.6 °F /  4.2 °C 34.5 °F /  1.4 °C 30.32 in /  1026.6 hPa NW 6.0 mph /  9.7 km/h 8.0 mph /  12.9 km/h 82 % 0.00 in /  0 mm 0 W/m2
17:30 39.6 °F /  4.2 °C 34.5 °F /  1.4 °C 30.32 in /  1026.6 hPa NW 4.0 mph /  6.4 km/h 7.0 mph /  11.3 km/h 82 % 0.00 in /  0 mm 0 W/m2
17:35 39.6 °F /  4.2 °C 34.5 °F /  1.4 °C 30.32 in /  1026.6 hPa NW 5.0 mph /  8 km/h 8.0 mph /  12.9 km/h 82 % 0.00 in /  0 mm 0 W/m2
17:42 39.4 °F /  4.1 °C 34.0 °F /  1.1 °C 30.32 in /  1026.6 hPa NW 4.0 mph /  6.4 km/h 7.0 mph /  11.3 km/h 81 % 0.00 in /  0 mm 0 W/m2
17:47 39.4 °F /  4.1 °C 34.3 °F /  1.3 °C 30.32 in /  1026.6 hPa WNW 5.0 mph /  8 km/h 7.0 mph /  11.3 km/h 82 % 0.00 in /  0 mm 0 W/m2
17:52 39.4 °F /  4.1 °C 34.3 °F /  1.3 °C 30.32 in /  1026.6 hPa WNW 5.0 mph /  8 km/h 7.0 mph /  11.3 km/h 82 % 0.00 in /  0 mm 0 W/m2
17:57 39.4 °F /  4.1 °C 34.3 °F /  1.3 °C 30.32 in /  1026.6 hPa WNW 5.0 mph /  8 km/h 7.0 mph /  11.3 km/h 82 % 0.00 in /  0 mm 0 W/m2
18:12 39.0 °F /  3.9 °C 34.0 °F /  1.1 °C 30.32 in /  1026.6 hPa NW 5.0 mph /  8 km/h 5.0 mph /  8 km/h 82 % 0.00 in /  0 mm 0 W/m2
18:17 39.0 °F /  3.9 °C 34.0 °F /  1.1 °C 30.32 in /  1026.6 hPa NW 5.0 mph /  8 km/h 5.0 mph /  8 km/h 82 % 0.00 in /  0 mm 0 W/m2
18:22 39.0 °F /  3.9 °C 34.0 °F /  1.1 °C 30.32 in /  1026.6 hPa NW 5.0 mph /  8 km/h 5.0 mph /  8 km/h 82 % 0.00 in /  0 mm 0 W/m2
18:27 39.0 °F /  3.9 °C 34.0 °F /  1.1 °C 30.32 in /  1026.6 hPa NW 5.0 mph /  8 km/h 5.0 mph /  8 km/h 82 % 0.00 in /  0 mm 0 W/m2
18:32 39.0 °F /  3.9 °C 34.0 °F /  1.1 °C 30.33 in /  1027 hPa NW 5.0 mph /  8 km/h 5.0 mph /  8 km/h 82 % 0.00 in /  0 mm 0 W/m2
18:37 39.0 °F /  3.9 °C 34.0 °F /  1.1 °C 30.32 in /  1026.6 hPa NW 5.0 mph /  8 km/h 5.0 mph /  8 km/h 82 % 0.00 in /  0 mm 0 W/m2
18:42 39.0 °F /  3.9 °C 34.0 °F /  1.1 °C 30.32 in /  1026.6 hPa NW 5.0 mph /  8 km/h 5.0 mph /  8 km/h 82 % 0.00 in /  0 mm 0 W/m2
18:47 39.0 °F /  3.9 °C 34.0 °F /  1.1 °C 30.32 in /  1026.6 hPa NW 5.0 mph /  8 km/h 5.0 mph /  8 km/h 82 % 0.00 in /  0 mm 0 W/m2
18:52 39.0 °F /  3.9 °C 34.0 °F /  1.1 °C 30.33 in /  1027 hPa NW 5.0 mph /  8 km/h 5.0 mph /  8 km/h 82 % 0.00 in /  0 mm 0 W/m2
18:57 39.0 °F /  3.9 °C 34.0 °F /  1.1 °C 30.32 in /  1026.6 hPa NW 5.0 mph /  8 km/h 5.0 mph /  8 km/h 82 % 0.00 in /  0 mm 0 W/m2
19:02 39.0 °F /  3.9 °C 34.0 °F /  1.1 °C 30.33 in /  1027 hPa NW 5.0 mph /  8 km/h 5.0 mph /  8 km/h 82 % 0.00 in /  0 mm 0 W/m2
19:07 39.0 °F /  3.9 °C 34.0 °F /  1.1 °C 30.33 in /  1027 hPa NW 5.0 mph /  8 km/h 5.0 mph /  8 km/h 82 % 0.00 in /  0 mm 0 W/m2
19:12 39.0 °F /  3.9 °C 34.0 °F /  1.1 °C 30.33 in /  1027 hPa NW 5.0 mph /  8 km/h 5.0 mph /  8 km/h 82 % 0.00 in /  0 mm 0 W/m2
19:22 39.0 °F /  3.9 °C 34.0 °F /  1.1 °C 30.32 in /  1026.6 hPa NW 5.0 mph /  8 km/h 5.0 mph /  8 km/h 82 % 0.00 in /  0 mm 0 W/m2
19:27 39.0 °F /  3.9 °C 34.0 °F /  1.1 °C 30.33 in /  1027 hPa NW 5.0 mph /  8 km/h 5.0 mph /  8 km/h 82 % 0.00 in /  0 mm 0 W/m2
19:42 39.0 °F /  3.9 °C 34.0 °F /  1.1 °C 30.33 in /  1027 hPa NW 5.0 mph /  8 km/h 5.0 mph /  8 km/h 82 % 0.00 in /  0 mm 0 W/m2
19:52 39.0 °F /  3.9 °C 34.0 °F /  1.1 °C 30.33 in /  1027 hPa NW 5.0 mph /  8 km/h 5.0 mph /  8 km/h 82 % 0.00 in /  0 mm 0 W/m2
19:57 39.0 °F /  3.9 °C 34.0 °F /  1.1 °C 30.33 in /  1027 hPa NW 5.0 mph /  8 km/h 5.0 mph /  8 km/h 82 % 0.00 in /  0 mm 0 W/m2
20:07 39.0 °F /  3.9 °C 34.0 °F /  1.1 °C 30.33 in /  1027 hPa NW 5.0 mph /  8 km/h 5.0 mph /  8 km/h 82 % 0.00 in /  0 mm 0 W/m2
20:12 39.0 °F /  3.9 °C 34.0 °F /  1.1 °C 30.34 in /  1027.3 hPa NW 5.0 mph /  8 km/h 5.0 mph /  8 km/h 82 % 0.00 in /  0 mm 0 W/m2
20:22 39.0 °F /  3.9 °C 34.0 °F /  1.1 °C 30.34 in /  1027.3 hPa NW 5.0 mph /  8 km/h 5.0 mph /  8 km/h 82 % 0.00 in /  0 mm 0 W/m2
20:27 39.0 °F /  3.9 °C 34.0 °F /  1.1 °C 30.34 in /  1027.3 hPa NW 5.0 mph /  8 km/h 5.0 mph /  8 km/h 82 % 0.00 in /  0 mm 0 W/m2
20:37 39.0 °F /  3.9 °C 34.0 °F /  1.1 °C 30.34 in /  1027.3 hPa NW 5.0 mph /  8 km/h 5.0 mph /  8 km/h 82 % 0.00 in /  0 mm 0 W/m2
20:52 38.5 °F /  3.6 °C 33.2 °F /  0.7 °C 30.34 in /  1027.3 hPa NW 5.0 mph /  8 km/h 5.0 mph /  8 km/h 81 % 0.00 in /  0 mm 0 W/m2
20:57 38.3 °F /  3.5 °C 33.0 °F /  0.6 °C 30.34 in /  1027.3 hPa WNW 3.0 mph /  4.8 km/h 4.0 mph /  6.4 km/h 81 % 0.00 in /  0 mm 0 W/m2
21:07 38.1 °F /  3.4 °C 32.8 °F /  0.4 °C 30.34 in /  1027.3 hPa WNW 5.0 mph /  8 km/h 7.0 mph /  11.3 km/h 81 % 0.00 in /  0 mm 0 W/m2
21:12 38.1 °F /  3.4 °C 32.8 °F /  0.4 °C 30.34 in /  1027.3 hPa WNW 5.0 mph /  8 km/h 8.0 mph /  12.9 km/h 81 % 0.00 in /  0 mm 0 W/m2
21:17 38.3 °F /  3.5 °C 33.0 °F /  0.6 °C 30.33 in /  1027 hPa WNW 5.0 mph /  8 km/h 6.0 mph /  9.7 km/h 81 % 0.00 in /  0 mm 0 W/m2
21:22 38.3 °F /  3.5 °C 33.0 °F /  0.6 °C 30.33 in /  1027 hPa WNW 5.0 mph /  8 km/h 9.0 mph /  14.5 km/h 81 % 0.00 in /  0 mm 0 W/m2
21:27 38.3 °F /  3.5 °C 32.7 °F /  0.4 °C 30.33 in /  1027 hPa WNW 6.0 mph /  9.7 km/h 8.0 mph /  12.9 km/h 80 % 0.00 in /  0 mm 0 W/m2
21:32 38.3 °F /  3.5 °C 32.7 °F /  0.4 °C 30.33 in /  1027 hPa WNW 5.0 mph /  8 km/h 8.0 mph /  12.9 km/h 80 % 0.00 in /  0 mm 0 W/m2
21:37 38.3 °F /  3.5 °C 32.7 °F /  0.4 °C 30.33 in /  1027 hPa WNW 5.0 mph /  8 km/h 7.0 mph /  11.3 km/h 80 % 0.00 in /  0 mm 0 W/m2
21:42 38.3 °F /  3.5 °C 32.7 °F /  0.4 °C 30.34 in /  1027.3 hPa WNW 6.0 mph /  9.7 km/h 8.0 mph /  12.9 km/h 80 % 0.00 in /  0 mm 0 W/m2
21:47 38.3 °F /  3.5 °C 32.7 °F /  0.4 °C 30.34 in /  1027.3 hPa WNW 6.0 mph /  9.7 km/h 8.0 mph /  12.9 km/h 80 % 0.00 in /  0 mm 0 W/m2
21:57 38.1 °F /  3.4 °C 32.5 °F /  0.3 °C 30.34 in /  1027.3 hPa WNW 6.0 mph /  9.7 km/h 9.0 mph /  14.5 km/h 80 % 0.00 in /  0 mm 0 W/m2
22:02 38.1 °F /  3.4 °C 32.5 °F /  0.3 °C 30.34 in /  1027.3 hPa WNW 6.0 mph /  9.7 km/h 8.0 mph /  12.9 km/h 80 % 0.00 in /  0 mm 0 W/m2
22:07 38.1 °F /  3.4 °C 32.5 °F /  0.3 °C 30.34 in /  1027.3 hPa WNW 6.0 mph /  9.7 km/h 8.0 mph /  12.9 km/h 80 % 0.00 in /  0 mm 0 W/m2
22:12 38.1 °F /  3.4 °C 32.5 °F /  0.3 °C 30.34 in /  1027.3 hPa WNW 7.0 mph /  11.3 km/h 10.0 mph /  16.1 km/h 80 % 0.00 in /  0 mm 0 W/m2
22:17 38.1 °F /  3.4 °C 32.2 °F /  0.1 °C 30.34 in /  1027.3 hPa WNW 6.0 mph /  9.7 km/h 8.0 mph /  12.9 km/h 79 % 0.00 in /  0 mm 0 W/m2
22:27 38.1 °F /  3.4 °C 32.2 °F /  0.1 °C 30.34 in /  1027.3 hPa WNW 6.0 mph /  9.7 km/h 9.0 mph /  14.5 km/h 79 % 0.00 in /  0 mm 0 W/m2
22:37 38.1 °F /  3.4 °C 32.2 °F /  0.1 °C 30.34 in /  1027.3 hPa WNW 7.0 mph /  11.3 km/h 9.0 mph /  14.5 km/h 79 % 0.00 in /  0 mm 0 W/m2
22:42 38.1 °F /  3.4 °C 32.2 °F /  0.1 °C 30.33 in /  1027 hPa WNW 6.0 mph /  9.7 km/h 8.0 mph /  12.9 km/h 79 % 0.00 in /  0 mm 0 W/m2
22:47 38.1 °F /  3.4 °C 32.2 °F /  0.1 °C 30.33 in /  1027 hPa WNW 5.0 mph /  8 km/h 7.0 mph /  11.3 km/h 79 % 0.00 in /  0 mm 0 W/m2
23:02 38.1 °F /  3.4 °C 32.2 °F /  0.1 °C 30.32 in /  1026.6 hPa WNW 6.0 mph /  9.7 km/h 8.0 mph /  12.9 km/h 79 % 0.00 in /  0 mm 0 W/m2
23:07 38.1 °F /  3.4 °C 32.2 °F /  0.1 °C 30.32 in /  1026.6 hPa WNW 5.0 mph /  8 km/h 7.0 mph /  11.3 km/h 79 % 0.00 in /  0 mm 0 W/m2
23:12 38.1 °F /  3.4 °C 31.9 °F /  -0.1 °C 30.33 in /  1027 hPa WNW 5.0 mph /  8 km/h 9.0 mph /  14.5 km/h 78 % 0.00 in /  0 mm 0 W/m2
23:17 38.1 °F /  3.4 °C 31.9 °F /  -0.1 °C 30.33 in /  1027 hPa WNW 5.0 mph /  8 km/h 7.0 mph /  11.3 km/h 78 % 0.00 in /  0 mm 0 W/m2
23:23 38.1 °F /  3.4 °C 31.9 °F /  -0.1 °C 30.33 in /  1027 hPa WNW 5.0 mph /  8 km/h 8.0 mph /  12.9 km/h 78 % 0.00 in /  0 mm 0 W/m2
23:25 38.1 °F /  3.4 °C 31.9 °F /  -0.1 °C 30.33 in /  1027 hPa WNW 4.0 mph /  6.4 km/h 6.0 mph /  9.7 km/h 78 % 0.00 in /  0 mm 0 W/m2
23:30 38.1 °F /  3.4 °C 31.9 °F /  -0.1 °C 30.33 in /  1027 hPa WNW 5.0 mph /  8 km/h 7.0 mph /  11.3 km/h 78 % 0.00 in /  0 mm 0 W/m2
23:35 38.1 °F /  3.4 °C 31.9 °F /  -0.1 °C 30.33 in /  1027 hPa WNW 4.0 mph /  6.4 km/h 7.0 mph /  11.3 km/h 78 % 0.00 in /  0 mm 0 W/m2
23:45 38.1 °F /  3.4 °C 31.9 °F /  -0.1 °C 30.33 in /  1027 hPa WNW 5.0 mph /  8 km/h 8.0 mph /  12.9 km/h 78 % 0.00 in /  0 mm 0 W/m2
23:50 38.1 °F /  3.4 °C 31.5 °F /  -0.3 °C 30.33 in /  1027 hPa WNW 3.0 mph /  4.8 km/h 7.0 mph /  11.3 km/h 77 % 0.00 in /  0 mm 0 W/m2
Delerius-Weather
Compliments of Weather Underground - 2 mb

Data updates at regular intervals.